createdAt,value
2019-02-10T00:01:42.735Z,21.20
2019-02-10T00:04:48.756Z,21.20
2019-02-10T00:07:54.612Z,21.20
2019-02-10T00:11:00.472Z,21.20
2019-02-10T00:14:06.332Z,21.20
2019-02-10T00:17:12.192Z,21.20
2019-02-10T00:20:17.928Z,21.10
2019-02-10T00:23:23.936Z,21.10
2019-02-10T00:26:29.962Z,21.10
2019-02-10T00:29:35.839Z,21.10
2019-02-10T00:32:41.772Z,21.10
2019-02-10T00:35:47.642Z,21.10
2019-02-10T00:38:53.323Z,21.10
2019-02-10T00:41:59.140Z,21.00
2019-02-10T00:45:05.101Z,21.00
2019-02-10T00:48:10.859Z,21.00
2019-02-10T00:51:16.721Z,21.00
2019-02-10T00:54:22.612Z,21.00
2019-02-10T00:57:28.540Z,21.00
2019-02-10T01:00:34.299Z,21.00
2019-02-10T01:03:39.977Z,21.00
2019-02-10T01:06:45.696Z,20.90
2019-02-10T01:09:51.661Z,20.90
2019-02-10T01:12:57.411Z,20.90
2019-02-10T01:16:04.288Z,20.90
2019-02-10T01:19:13.356Z,20.90
2019-02-10T01:22:19.182Z,20.90
2019-02-10T01:25:25.053Z,20.80
2019-02-10T01:28:30.901Z,20.80
2019-02-10T01:31:36.663Z,20.80
2019-02-10T01:34:42.452Z,20.80
2019-02-10T01:37:48.320Z,20.80
2019-02-10T01:40:54.228Z,20.80
2019-02-10T01:43:59.924Z,20.70
2019-02-10T01:47:05.632Z,20.80
2019-02-10T01:50:12.029Z,20.70
2019-02-10T01:53:17.856Z,20.70
2019-02-10T01:56:23.616Z,20.70
2019-02-10T01:59:29.517Z,20.70
2019-02-10T02:02:35.439Z,20.70
2019-02-10T02:05:41.236Z,20.70
2019-02-10T02:08:47.145Z,20.70
2019-02-10T02:11:53.011Z,20.70
2019-02-10T02:14:58.905Z,20.60
2019-02-10T02:18:04.716Z,20.60
2019-02-10T02:21:10.404Z,20.60
2019-02-10T02:24:17.185Z,20.60
2019-02-10T02:27:23.013Z,20.60
2019-02-10T02:30:28.910Z,20.60
2019-02-10T02:33:34.833Z,20.60
2019-02-10T02:36:43.638Z,20.60
2019-02-10T02:39:49.344Z,20.60
2019-02-10T02:42:55.277Z,20.60
2019-02-10T02:46:01.168Z,20.60
2019-02-10T02:49:07.029Z,20.60
2019-02-10T02:52:12.847Z,20.50
2019-02-10T02:55:18.846Z,20.50
2019-02-10T02:58:24.870Z,20.50
2019-02-10T03:01:30.764Z,20.50
2019-02-10T03:04:36.580Z,20.50
2019-02-10T03:07:42.335Z,20.50
2019-02-10T03:10:48.125Z,20.50
2019-02-10T03:13:54.157Z,20.40
2019-02-10T03:16:59.946Z,20.40
2019-02-10T03:20:06.112Z,20.40
2019-02-10T03:23:12.140Z,20.40
2019-02-10T03:26:18.232Z,20.40
2019-02-10T03:29:24.056Z,20.40
2019-02-10T03:32:29.958Z,20.40
2019-02-10T03:35:35.764Z,20.40
2019-02-10T03:38:41.521Z,20.30
2019-02-10T03:41:47.277Z,20.30
2019-02-10T03:44:53.028Z,20.30
2019-02-10T03:47:58.784Z,20.30
2019-02-10T03:51:04.651Z,20.30
2019-02-10T03:54:10.608Z,20.30
2019-02-10T03:57:16.468Z,20.30
2019-02-10T04:00:22.484Z,20.30
2019-02-10T04:03:28.285Z,20.30
2019-02-10T04:06:34.145Z,20.20
2019-02-10T04:09:39.897Z,20.20
2019-02-10T04:12:45.651Z,20.20
2019-02-10T04:15:51.552Z,20.20
2019-02-10T04:18:57.362Z,20.20
2019-02-10T04:22:03.219Z,20.20
2019-02-10T04:25:09.186Z,20.20
2019-02-10T04:28:15.047Z,20.10
2019-02-10T04:31:20.830Z,20.10
2019-02-10T04:34:26.760Z,20.10
2019-02-10T04:37:32.616Z,20.10
2019-02-10T04:40:38.471Z,20.10
2019-02-10T04:43:44.337Z,20.10
2019-02-10T04:46:50.088Z,20.10
2019-02-10T04:49:56.048Z,20.10
2019-02-10T04:53:01.902Z,20.10
2019-02-10T04:56:12.812Z,20.00
2019-02-10T04:59:19.661Z,20.00
2019-02-10T05:02:25.520Z,20.00
2019-02-10T05:05:31.579Z,20.00
2019-02-10T05:08:37.541Z,20.00
2019-02-10T05:11:43.224Z,20.00
2019-02-10T05:14:49.253Z,20.00
2019-02-10T05:17:55.111Z,20.00
2019-02-10T05:21:00.970Z,20.00
2019-02-10T05:24:06.832Z,19.90
2019-02-10T05:27:12.729Z,19.90
2019-02-10T05:30:18.542Z,19.90
2019-02-10T05:33:24.421Z,19.90
2019-02-10T05:36:30.398Z,19.90
2019-02-10T05:39:36.324Z,19.90
2019-02-10T05:42:42.212Z,19.80
2019-02-10T05:45:48.029Z,19.90
2019-02-10T05:48:53.849Z,19.90
2019-02-10T05:51:59.586Z,19.80
2019-02-10T05:55:05.709Z,19.90
2019-02-10T05:58:11.499Z,19.90
2019-02-10T06:01:52.901Z,19.80
2019-02-10T06:05:08.034Z,19.90
2019-02-10T06:08:13.933Z,19.90
2019-02-10T06:11:19.636Z,19.90
2019-02-10T06:14:25.540Z,20.00
2019-02-10T06:17:31.287Z,20.00
2019-02-10T06:20:37.217Z,20.20
2019-02-10T06:23:43.108Z,20.20
2019-02-10T06:26:48.820Z,20.30
2019-02-10T06:29:54.592Z,20.40
2019-02-10T06:33:00.448Z,20.50
2019-02-10T06:36:06.185Z,20.50
2019-02-10T06:39:11.903Z,20.60
2019-02-10T06:42:18.094Z,20.70
2019-02-10T06:45:23.779Z,20.70
2019-02-10T06:48:29.639Z,20.80
2019-02-10T06:51:35.499Z,20.80
2019-02-10T06:54:53.236Z,20.90
2019-02-10T06:57:59.092Z,20.90
2019-02-10T07:01:27.737Z,21.00
2019-02-10T07:04:33.780Z,21.00
2019-02-10T07:07:39.555Z,21.10
2019-02-10T07:10:46.177Z,21.10
2019-02-10T07:14:02.384Z,21.10
2019-02-10T07:17:35.272Z,21.10
2019-02-10T07:20:44.703Z,21.10
2019-02-10T07:24:19.852Z,21.10
2019-02-10T07:27:30.833Z,21.10
2019-02-10T07:30:47.926Z,21.10
2019-02-10T07:34:21.252Z,21.10
2019-02-10T07:37:57.425Z,21.10
2019-02-10T07:41:40.181Z,21.10
2019-02-10T07:45:29.931Z,21.10
2019-02-10T07:48:57.496Z,21.20
2019-02-10T07:52:44.216Z,21.20
2019-02-10T07:56:32.128Z,21.20
2019-02-10T07:59:46.001Z,21.30
2019-02-10T08:03:38.043Z,21.20
2019-02-10T08:07:25.084Z,21.30
2019-02-10T08:11:03.493Z,21.30
2019-02-10T08:14:47.128Z,21.20
2019-02-10T08:18:03.268Z,21.30
2019-02-10T08:21:25.304Z,21.20
2019-02-10T08:25:24.156Z,21.20
2019-02-10T08:29:06.285Z,21.20
2019-02-10T08:32:35.992Z,21.20
2019-02-10T08:36:24.385Z,21.10
2019-02-10T08:39:57.648Z,21.10
2019-02-10T08:43:41.905Z,21.10
2019-02-10T08:47:33.609Z,21.10
2019-02-10T08:51:11.549Z,21.10
2019-02-10T08:54:17.296Z,21.10
2019-02-10T08:57:23.147Z,21.00
2019-02-10T09:00:29.115Z,21.00
2019-02-10T09:03:35.084Z,21.00
2019-02-10T09:06:41.056Z,21.00
2019-02-10T09:09:46.892Z,21.00
2019-02-10T09:12:52.756Z,21.10
2019-02-10T09:15:58.448Z,21.10
2019-02-10T09:19:04.157Z,21.20
2019-02-10T09:22:10.011Z,21.30
2019-02-10T09:25:15.971Z,21.40
2019-02-10T09:28:21.738Z,21.50
2019-02-10T09:31:27.642Z,21.60
2019-02-10T09:34:33.342Z,22.00
2019-02-10T09:37:39.208Z,22.30
2019-02-10T09:40:45.164Z,22.40
2019-02-10T09:43:50.807Z,22.10
2019-02-10T09:46:56.713Z,21.90
2019-02-10T09:50:02.639Z,21.60
2019-02-10T09:53:08.688Z,21.40
2019-02-10T09:56:14.654Z,21.10
2019-02-10T09:59:20.505Z,21.00
2019-02-10T10:02:26.528Z,20.80
2019-02-10T10:05:32.433Z,20.60
2019-02-10T10:08:38.332Z,20.70
2019-02-10T10:11:44.144Z,20.80
2019-02-10T10:14:50.008Z,20.70
2019-02-10T10:17:55.652Z,20.70
2019-02-10T10:21:01.623Z,20.70
2019-02-10T10:24:07.472Z,20.70
2019-02-10T10:27:13.332Z,20.80
2019-02-10T10:30:19.455Z,20.80
2019-02-10T10:33:25.288Z,20.70
2019-02-10T10:36:31.108Z,20.70
2019-02-10T10:39:36.873Z,20.60
2019-02-10T10:42:42.766Z,20.60
2019-02-10T10:45:48.581Z,20.60
2019-02-10T10:48:54.363Z,20.60
2019-02-10T10:52:00.195Z,20.60
2019-02-10T10:55:06.262Z,20.60
2019-02-10T10:58:12.256Z,20.60
2019-02-10T11:01:25.095Z,20.60
2019-02-10T11:04:25.668Z,20.60
2019-02-10T11:07:31.443Z,20.70
2019-02-10T11:10:37.284Z,20.70
2019-02-10T11:13:43.078Z,20.70
2019-02-10T11:16:49.001Z,20.70
2019-02-10T11:19:54.857Z,20.70
2019-02-10T11:23:00.644Z,20.70
2019-02-10T11:26:06.576Z,20.70
2019-02-10T11:29:12.468Z,20.60
2019-02-10T11:32:18.388Z,20.60
2019-02-10T11:35:24.144Z,20.60
2019-02-10T11:38:30.145Z,20.60
2019-02-10T11:41:35.959Z,20.60
2019-02-10T11:44:41.653Z,20.60
2019-02-10T11:47:47.468Z,20.60
2019-02-10T11:50:53.332Z,20.50
2019-02-10T11:54:03.937Z,20.60
2019-02-10T11:57:09.652Z,20.60
2019-02-10T12:00:15.442Z,20.60
2019-02-10T12:03:21.412Z,20.60
2019-02-10T12:06:27.332Z,20.60
2019-02-10T12:09:33.383Z,20.60
2019-02-10T12:12:39.250Z,20.60
2019-02-10T12:15:45.045Z,20.60
2019-02-10T12:18:51.008Z,20.60
2019-02-10T12:21:56.925Z,20.70
2019-02-10T12:25:02.828Z,20.60
2019-02-10T12:28:08.535Z,20.60
2019-02-10T12:31:14.424Z,20.60
2019-02-10T12:34:20.281Z,20.60
2019-02-10T12:37:32.286Z,20.60
2019-02-10T12:40:33.512Z,20.60
2019-02-10T12:43:39.407Z,20.60
2019-02-10T12:46:45.223Z,20.50
2019-02-10T12:49:51.082Z,20.50
2019-02-10T12:52:56.825Z,20.50
2019-02-10T12:56:02.479Z,20.50
2019-02-10T12:59:08.340Z,20.50
2019-02-10T13:02:14.207Z,20.60
2019-02-10T13:05:20.162Z,20.60
2019-02-10T13:08:25.908Z,20.60
2019-02-10T13:11:31.668Z,20.60
2019-02-10T13:14:37.632Z,20.60
2019-02-10T13:17:43.473Z,20.60
2019-02-10T13:20:49.344Z,20.60
2019-02-10T13:23:55.200Z,20.60
2019-02-10T13:27:00.944Z,20.60
2019-02-10T13:30:07.640Z,20.60
2019-02-10T13:33:13.490Z,20.60
2019-02-10T13:36:19.352Z,20.60
2019-02-10T13:39:25.145Z,20.60
2019-02-10T13:42:31.064Z,20.60
2019-02-10T13:45:36.920Z,20.60
2019-02-10T13:48:42.568Z,20.60
2019-02-10T13:51:48.329Z,20.50
2019-02-10T13:54:54.116Z,20.50
2019-02-10T13:58:00.144Z,20.50
2019-02-10T14:01:06.208Z,20.50
2019-02-10T14:04:11.856Z,20.50
2019-02-10T14:07:17.616Z,20.50
2019-02-10T14:10:25.808Z,20.50
2019-02-10T14:13:31.073Z,20.50
2019-02-10T14:16:36.821Z,20.50
2019-02-10T14:19:42.611Z,20.50
2019-02-10T14:22:48.546Z,20.50
2019-02-10T14:25:54.336Z,20.60
2019-02-10T14:29:00.259Z,20.60
2019-02-10T14:32:06.116Z,20.60
2019-02-10T14:35:12.008Z,20.60
2019-02-10T14:38:17.868Z,20.60
2019-02-10T14:41:23.692Z,20.60
2019-02-10T14:44:29.449Z,20.60
2019-02-10T14:47:35.100Z,20.60
2019-02-10T14:50:40.896Z,20.60
2019-02-10T14:53:46.700Z,20.60
2019-02-10T14:56:52.465Z,20.60
2019-02-10T14:59:58.250Z,20.60
2019-02-10T15:03:04.088Z,20.60
2019-02-10T15:06:09.968Z,20.60
2019-02-10T15:09:15.781Z,20.60
2019-02-10T15:12:21.648Z,20.60
2019-02-10T15:15:27.646Z,20.50
2019-02-10T15:18:33.463Z,20.50
2019-02-10T15:21:39.257Z,20.50
2019-02-10T15:24:45.180Z,20.50
2019-02-10T15:27:51.141Z,20.50
2019-02-10T15:30:56.932Z,20.50
2019-02-10T15:34:02.752Z,20.50
2019-02-10T15:37:08.536Z,20.50
2019-02-10T15:40:14.618Z,20.50
2019-02-10T15:43:20.433Z,20.50
2019-02-10T15:46:26.296Z,20.50
2019-02-10T15:49:32.145Z,20.60
2019-02-10T15:52:37.932Z,20.60
2019-02-10T15:55:43.792Z,20.60
2019-02-10T15:58:49.916Z,20.60
2019-02-10T16:01:55.924Z,20.60
2019-02-10T16:05:01.742Z,20.60
2019-02-10T16:08:07.383Z,20.60
2019-02-10T16:11:13.083Z,20.60
2019-02-10T16:14:18.900Z,20.60
2019-02-10T16:17:24.806Z,20.60
2019-02-10T16:20:30.504Z,20.60
2019-02-10T16:23:36.376Z,20.60
2019-02-10T16:26:42.170Z,20.60
2019-02-10T16:29:47.984Z,20.60
2019-02-10T16:32:53.790Z,20.50
2019-02-10T16:35:59.740Z,20.50
2019-02-10T16:39:11.504Z,20.50
2019-02-10T16:42:17.261Z,20.50
2019-02-10T16:45:23.167Z,20.50
2019-02-10T16:48:28.860Z,20.50
2019-02-10T16:51:34.620Z,20.50
2019-02-10T16:54:40.475Z,20.60
2019-02-10T16:57:46.340Z,20.60
2019-02-10T17:00:52.022Z,20.60
2019-02-10T17:03:57.947Z,20.60
2019-02-10T17:07:03.807Z,20.60
2019-02-10T17:10:10.995Z,20.60
2019-02-10T17:13:16.858Z,20.70
2019-02-10T17:16:22.748Z,20.80
2019-02-10T17:19:28.568Z,20.90
2019-02-10T17:22:34.329Z,20.90
2019-02-10T17:25:40.076Z,21.00
2019-02-10T17:28:45.936Z,21.00
2019-02-10T17:31:51.692Z,21.00
2019-02-10T17:34:57.556Z,21.00
2019-02-10T17:38:03.407Z,21.00
2019-02-10T17:41:22.790Z,21.00
2019-02-10T17:44:26.390Z,21.00
2019-02-10T17:47:32.136Z,21.00
2019-02-10T17:50:37.896Z,21.00
2019-02-10T17:53:43.691Z,21.00
2019-02-10T17:56:49.608Z,21.10
2019-02-10T17:59:55.468Z,21.10
2019-02-10T18:03:01.428Z,21.10
2019-02-10T18:06:07.076Z,21.20
2019-02-10T18:09:13.145Z,21.10
2019-02-10T18:12:20.141Z,21.20
2019-02-10T18:15:43.456Z,21.20
2019-02-10T18:19:08.142Z,21.20
2019-02-10T18:22:32.321Z,21.20
2019-02-10T18:25:54.164Z,21.20
2019-02-10T18:29:24.708Z,21.20
2019-02-10T18:32:49.428Z,21.20
2019-02-10T18:36:17.004Z,21.20
2019-02-10T18:39:40.640Z,21.20
2019-02-10T18:43:01.340Z,21.20
2019-02-10T18:46:18.116Z,21.20
2019-02-10T18:49:51.880Z,21.20
2019-02-10T18:53:04.181Z,21.10
2019-02-10T18:56:28.860Z,21.10
2019-02-10T18:59:44.724Z,21.10
2019-02-10T19:03:24.572Z,21.20
2019-02-10T19:06:38.944Z,21.30
2019-02-10T19:10:03.776Z,21.40
2019-02-10T19:13:24.446Z,21.50
2019-02-10T19:16:52.204Z,21.60
2019-02-10T19:20:34.964Z,21.60
2019-02-10T19:24:08.568Z,21.70
2019-02-10T19:27:33.423Z,21.80
2019-02-10T19:30:58.283Z,21.70
2019-02-10T19:34:26.013Z,21.60
2019-02-10T19:37:50.964Z,21.50
2019-02-10T19:41:24.973Z,21.50
2019-02-10T19:44:48.262Z,21.50
2019-02-10T19:48:14.885Z,21.60
2019-02-10T19:51:38.750Z,21.60
2019-02-10T19:54:50.507Z,21.60
2019-02-10T19:58:21.098Z,21.60
2019-02-10T20:01:45.931Z,21.60
2019-02-10T20:05:17.268Z,21.70
2019-02-10T20:08:34.589Z,21.70
2019-02-10T20:12:11.567Z,21.70
2019-02-10T20:15:55.190Z,21.80
2019-02-10T20:19:21.767Z,21.80
2019-02-10T20:22:35.095Z,21.90
2019-02-10T20:26:02.977Z,21.90
2019-02-10T20:29:26.136Z,22.00
2019-02-10T20:32:59.792Z,22.00
2019-02-10T20:36:15.929Z,22.00
2019-02-10T20:39:31.208Z,22.00
2019-02-10T20:42:55.491Z,22.00
2019-02-10T20:46:11.936Z,22.00
2019-02-10T20:49:49.095Z,22.00
2019-02-10T20:53:12.741Z,22.00
2019-02-10T20:56:43.524Z,22.00
2019-02-10T21:00:20.825Z,22.00
2019-02-10T21:03:35.746Z,22.00
2019-02-10T21:07:06.422Z,21.90
2019-02-10T21:10:50.442Z,21.90
2019-02-10T21:14:24.321Z,21.90
2019-02-10T21:17:41.480Z,21.80
2019-02-10T21:21:06.388Z,21.80
2019-02-10T21:24:30.085Z,21.70
2019-02-10T21:27:52.299Z,21.70
2019-02-10T21:31:15.798Z,21.70
2019-02-10T21:34:52.897Z,21.60
2019-02-10T21:38:20.903Z,21.60
2019-02-10T21:41:36.757Z,21.50
2019-02-10T21:45:01.520Z,21.30
2019-02-10T21:48:12.575Z,21.20
2019-02-10T21:51:18.707Z,21.10
2019-02-10T21:54:24.690Z,21.00
2019-02-10T21:57:30.817Z,21.00
2019-02-10T22:00:36.816Z,21.00
2019-02-10T22:03:42.966Z,20.90
2019-02-10T22:06:50.317Z,20.80
2019-02-10T22:09:59.072Z,20.80
2019-02-10T22:13:06.184Z,20.80
2019-02-10T22:16:12.291Z,20.70
2019-02-10T22:19:18.388Z,20.70
2019-02-10T22:22:24.304Z,20.70
2019-02-10T22:25:30.263Z,20.70
2019-02-10T22:28:36.162Z,20.60
2019-02-10T22:31:42.073Z,20.60
2019-02-10T22:34:47.727Z,20.60
2019-02-10T22:37:53.480Z,20.50
2019-02-10T22:40:59.451Z,20.50
2019-02-10T22:44:05.448Z,20.50
2019-02-10T22:51:34.291Z,20.50
2019-02-10T22:54:40.084Z,20.40
2019-02-10T22:57:45.888Z,20.40
2019-02-10T23:01:16.792Z,20.40
2019-02-10T23:04:22.649Z,20.40
2019-02-10T23:07:29.154Z,20.30
2019-02-10T23:10:34.876Z,20.30
2019-02-10T23:13:40.681Z,20.30
2019-02-10T23:16:46.369Z,20.30
2019-02-10T23:19:52.036Z,20.30
2019-02-10T23:22:57.995Z,20.30
2019-02-10T23:26:03.853Z,20.30
2019-02-10T23:29:35.724Z,20.20
2019-02-10T23:32:42.696Z,20.20
2019-02-10T23:35:49.284Z,20.30
2019-02-10T23:38:55.136Z,20.30
2019-02-10T23:42:00.881Z,20.30
2019-02-10T23:45:06.743Z,20.40
2019-02-10T23:48:12.500Z,20.40
2019-02-10T23:51:18.256Z,20.40
2019-02-10T23:54:24.256Z,20.40
2019-02-10T23:57:30.183Z,20.40
